createdAt,value
2018-11-06T00:00:44.113Z,7.60
2018-11-06T00:03:19.638Z,7.60
2018-11-06T00:05:49.991Z,7.60
2018-11-06T00:08:18.261Z,7.60
2018-11-06T00:10:46.461Z,7.60
2018-11-06T00:13:14.797Z,7.60
2018-11-06T00:15:43.578Z,7.70
2018-11-06T00:18:11.813Z,7.70
2018-11-06T00:20:40.274Z,7.70
2018-11-06T00:23:08.453Z,7.70
2018-11-06T00:25:36.640Z,7.70
2018-11-06T00:28:05.319Z,7.70
2018-11-06T00:30:33.670Z,7.70
2018-11-06T00:33:01.873Z,7.70
2018-11-06T00:35:30.077Z,7.70
2018-11-06T00:38:02.629Z,7.70
2018-11-06T00:40:39.297Z,7.80
2018-11-06T00:43:07.509Z,7.70
2018-11-06T00:45:35.785Z,7.80
2018-11-06T00:48:04.376Z,7.80
2018-11-06T00:50:32.606Z,7.70
2018-11-06T00:53:00.921Z,7.70
2018-11-06T00:55:29.349Z,7.70
2018-11-06T00:57:57.548Z,7.80
2018-11-06T01:00:26.572Z,7.70
2018-11-06T01:02:54.984Z,7.70
2018-11-06T01:05:23.253Z,7.80
2018-11-06T01:07:51.465Z,7.80
2018-11-06T01:10:21.653Z,7.80
2018-11-06T01:12:50.025Z,7.70
2018-11-06T01:15:18.243Z,7.70
2018-11-06T01:17:48.464Z,7.70
2018-11-06T01:20:18.319Z,7.70
2018-11-06T01:22:46.627Z,7.70
2018-11-06T01:25:16.766Z,7.70
2018-11-06T01:27:46.977Z,7.70
2018-11-06T01:30:18.472Z,7.60
2018-11-06T01:32:47.179Z,7.50
2018-11-06T01:35:18.128Z,7.50
2018-11-06T01:37:46.935Z,7.40
2018-11-06T01:40:16.400Z,7.30
2018-11-06T01:42:45.132Z,7.20
2018-11-06T01:45:14.630Z,7.10
2018-11-06T01:47:43.165Z,7.10
2018-11-06T01:50:14.390Z,7.10
2018-11-06T01:52:45.918Z,6.90
2018-11-06T01:55:14.212Z,6.90
2018-11-06T01:57:42.403Z,6.90
2018-11-06T02:00:19.905Z,6.80
2018-11-06T02:02:48.456Z,6.70
2018-11-06T02:05:17.698Z,6.70
2018-11-06T02:07:47.393Z,6.80
2018-11-06T02:10:18.276Z,6.70
2018-11-06T02:12:47.338Z,6.60
2018-11-06T02:15:15.561Z,6.60
2018-11-06T02:17:44.527Z,6.50
2018-11-06T02:20:13.847Z,6.50
2018-11-06T02:22:43.313Z,6.50
2018-11-06T02:25:12.182Z,6.50
2018-11-06T02:27:40.481Z,6.40
2018-11-06T02:30:11.681Z,6.30
2018-11-06T02:32:40.296Z,6.30
2018-11-06T02:35:08.617Z,6.20
2018-11-06T02:37:37.298Z,6.30
2018-11-06T02:40:06.605Z,6.30
2018-11-06T02:42:34.926Z,6.30
2018-11-06T02:45:03.623Z,6.20
2018-11-06T02:47:32.009Z,6.10
2018-11-06T02:50:00.304Z,6.10
2018-11-06T02:52:31.451Z,6.20
2018-11-06T02:54:59.798Z,6.10
2018-11-06T02:57:28.089Z,6.10
2018-11-06T02:59:56.562Z,6.00
2018-11-06T03:02:25.095Z,6.00
2018-11-06T03:04:53.377Z,6.00
2018-11-06T03:07:24.818Z,6.00
2018-11-06T03:09:53.068Z,5.90
2018-11-06T03:12:21.284Z,5.90
2018-11-06T03:14:49.487Z,6.00
2018-11-06T03:17:18.518Z,6.00
2018-11-06T03:19:46.822Z,6.00
2018-11-06T03:22:15.039Z,6.00
2018-11-06T03:24:43.262Z,5.90
2018-11-06T03:27:11.534Z,5.80
2018-11-06T03:29:39.673Z,5.80
2018-11-06T03:32:07.896Z,5.80
2018-11-06T03:34:36.081Z,5.80
2018-11-06T03:37:04.968Z,5.70
2018-11-06T03:39:33.172Z,5.70
2018-11-06T03:42:01.406Z,5.60
2018-11-06T03:44:29.604Z,5.50
2018-11-06T03:46:58.030Z,5.60
2018-11-06T03:49:26.321Z,5.70
2018-11-06T03:51:54.535Z,5.80
2018-11-06T03:54:22.926Z,5.80
2018-11-06T03:56:51.115Z,5.90
2018-11-06T03:59:19.629Z,5.90
2018-11-06T04:01:47.812Z,5.90
2018-11-06T04:04:17.146Z,5.90
2018-11-06T04:06:45.393Z,6.00
2018-11-06T04:09:13.697Z,6.00
2018-11-06T04:11:42.836Z,6.00
2018-11-06T04:14:11.484Z,6.00
2018-11-06T04:16:40.104Z,6.00
2018-11-06T04:19:10.579Z,6.00
2018-11-06T04:21:39.889Z,6.00
2018-11-06T04:24:09.474Z,6.10
2018-11-06T04:26:40.511Z,6.10
2018-11-06T04:29:09.716Z,6.10
2018-11-06T04:31:38.611Z,6.10
2018-11-06T04:34:10.103Z,6.10
2018-11-06T04:36:38.334Z,6.00
2018-11-06T04:39:09.868Z,6.00
2018-11-06T04:41:38.128Z,6.10
2018-11-06T04:44:07.033Z,6.10
2018-11-06T04:46:35.298Z,6.10
2018-11-06T04:49:03.821Z,6.00
2018-11-06T04:51:33.666Z,6.10
2018-11-06T04:54:02.432Z,6.20
2018-11-06T04:56:31.276Z,6.10
2018-11-06T04:58:59.610Z,6.10
2018-11-06T05:01:28.054Z,6.10
2018-11-06T05:03:56.343Z,6.10
2018-11-06T05:06:24.700Z,6.10
2018-11-06T05:08:53.125Z,6.10
2018-11-06T05:11:21.372Z,6.10
2018-11-06T05:13:51.573Z,6.10
2018-11-06T05:16:25.049Z,6.10
2018-11-06T05:18:53.692Z,6.10
2018-11-06T05:21:22.068Z,6.10
2018-11-06T05:23:50.337Z,6.00
2018-11-06T05:26:18.579Z,6.00
2018-11-06T05:28:46.874Z,6.00
2018-11-06T05:31:15.217Z,6.00
2018-11-06T05:33:43.466Z,5.90
2018-11-06T05:36:12.570Z,5.80
2018-11-06T05:38:41.870Z,5.80
2018-11-06T05:41:10.743Z,5.90
2018-11-06T05:43:39.397Z,5.90
2018-11-06T05:46:07.713Z,5.90
2018-11-06T05:48:36.209Z,5.90
2018-11-06T05:51:10.255Z,5.90
2018-11-06T05:53:38.444Z,5.90
2018-11-06T05:56:06.680Z,5.90
2018-11-06T05:58:34.910Z,5.90
2018-11-06T06:01:03.229Z,6.00
2018-11-06T06:03:32.970Z,6.00
2018-11-06T06:06:02.513Z,6.00
2018-11-06T06:08:34.192Z,6.00
2018-11-06T06:11:04.111Z,6.10
2018-11-06T06:13:36.993Z,6.10
2018-11-06T06:16:07.319Z,6.10
2018-11-06T06:18:35.529Z,6.00
2018-11-06T06:21:04.552Z,6.00
2018-11-06T06:23:35.831Z,6.00
2018-11-06T06:26:08.935Z,6.00
2018-11-06T06:28:37.242Z,6.00
2018-11-06T06:31:05.845Z,6.00
2018-11-06T06:33:34.193Z,6.00
2018-11-06T06:36:02.530Z,6.00
2018-11-06T06:38:32.015Z,5.90
2018-11-06T06:41:01.671Z,5.90
2018-11-06T06:43:29.861Z,5.90
2018-11-06T06:45:58.040Z,6.00
2018-11-06T06:48:33.373Z,6.00
2018-11-06T06:51:01.649Z,6.10
2018-11-06T06:53:29.913Z,6.10
2018-11-06T06:55:58.177Z,6.20
2018-11-06T06:58:30.645Z,6.30
2018-11-06T07:00:58.862Z,6.30
2018-11-06T07:03:28.617Z,6.40
2018-11-06T07:05:56.829Z,6.40
2018-11-06T07:08:26.943Z,6.40
2018-11-06T07:10:55.391Z,6.50
2018-11-06T07:13:25.983Z,6.60
2018-11-06T07:15:54.647Z,6.60
2018-11-06T07:18:23.003Z,6.60
2018-11-06T07:20:52.716Z,6.60
2018-11-06T07:23:21.401Z,6.60
2018-11-06T07:25:52.472Z,6.60
2018-11-06T07:28:26.346Z,6.60
2018-11-06T07:30:58.418Z,6.60
2018-11-06T07:33:28.686Z,6.70
2018-11-06T07:35:58.773Z,6.70
2018-11-06T07:38:27.164Z,6.70
2018-11-06T07:40:58.067Z,6.80
2018-11-06T07:43:29.622Z,6.80
2018-11-06T07:46:01.638Z,6.80
2018-11-06T07:48:29.833Z,6.90
2018-11-06T07:51:05.077Z,6.90
2018-11-06T07:53:39.061Z,6.90
2018-11-06T07:56:07.686Z,7.00
2018-11-06T07:58:36.680Z,7.10
2018-11-06T08:01:05.029Z,7.10
2018-11-06T08:03:33.268Z,7.20
2018-11-06T08:06:06.596Z,7.30
2018-11-06T08:08:34.782Z,7.40
2018-11-06T08:11:03.049Z,7.50
2018-11-06T08:13:31.346Z,7.60
2018-11-06T08:16:05.173Z,7.70
2018-11-06T08:18:35.248Z,7.80
2018-11-06T08:21:03.715Z,7.90
2018-11-06T08:23:32.577Z,8.00
2018-11-06T08:26:05.717Z,8.20
2018-11-06T08:28:33.968Z,8.30
2018-11-06T08:31:03.399Z,8.50
2018-11-06T08:33:38.555Z,8.60
2018-11-06T08:36:06.761Z,8.90
2018-11-06T08:38:34.975Z,9.00
2018-11-06T08:41:10.091Z,9.30
2018-11-06T08:43:38.290Z,9.30
2018-11-06T08:46:06.524Z,9.50
2018-11-06T08:48:34.771Z,9.60
2018-11-06T08:51:03.014Z,9.80
2018-11-06T08:53:31.233Z,9.90
2018-11-06T08:56:00.047Z,10.10
2018-11-06T08:58:28.242Z,10.30
2018-11-06T09:00:56.444Z,10.40
2018-11-06T09:03:31.737Z,10.60
2018-11-06T09:05:59.981Z,10.70
2018-11-06T09:08:28.392Z,10.90
2018-11-06T09:10:58.886Z,11.00
2018-11-06T09:13:27.507Z,11.00
2018-11-06T09:15:58.942Z,11.10
2018-11-06T09:18:27.173Z,11.10
2018-11-06T09:20:55.373Z,11.20
2018-11-06T09:23:23.614Z,11.40
2018-11-06T09:25:52.834Z,11.50
2018-11-06T09:28:21.066Z,11.60
2018-11-06T09:30:49.302Z,11.80
2018-11-06T09:33:20.671Z,11.90
2018-11-06T09:35:51.024Z,12.00
2018-11-06T09:38:19.404Z,12.00
2018-11-06T09:40:47.720Z,12.10
2018-11-06T09:43:16.140Z,12.20
2018-11-06T09:45:45.041Z,12.30
2018-11-06T09:48:13.370Z,12.30
2018-11-06T09:50:41.633Z,12.30
2018-11-06T09:53:14.428Z,12.30
2018-11-06T09:55:42.669Z,12.30
2018-11-06T09:58:11.245Z,12.30
2018-11-06T10:00:41.719Z,12.30
2018-11-06T10:03:09.943Z,12.30
2018-11-06T10:05:39.972Z,12.30
2018-11-06T10:08:08.284Z,12.30
2018-11-06T10:10:36.608Z,12.30
2018-11-06T10:13:05.636Z,12.30
2018-11-06T10:15:34.074Z,12.40
2018-11-06T10:18:06.445Z,12.40
2018-11-06T10:20:35.132Z,12.30
2018-11-06T10:23:05.437Z,12.30
2018-11-06T10:25:34.124Z,12.30
2018-11-06T10:28:02.549Z,12.30
2018-11-06T10:30:30.769Z,12.30
2018-11-06T10:32:58.976Z,12.30
2018-11-06T10:35:27.194Z,12.30
2018-11-06T10:37:55.453Z,12.40
2018-11-06T10:40:23.757Z,12.40
2018-11-06T10:42:52.000Z,12.60
2018-11-06T10:45:20.632Z,12.80
2018-11-06T10:47:49.148Z,13.00
2018-11-06T10:50:18.026Z,13.20
2018-11-06T10:52:49.145Z,13.40
2018-11-06T10:55:17.340Z,13.40
2018-11-06T10:57:45.531Z,13.60
2018-11-06T11:00:20.434Z,13.80
2018-11-06T11:02:54.118Z,13.90
2018-11-06T11:05:24.144Z,14.00
2018-11-06T11:07:52.668Z,14.00
2018-11-06T11:10:20.929Z,14.00
2018-11-06T11:12:49.214Z,14.10
2018-11-06T11:15:17.457Z,14.30
2018-11-06T11:17:48.116Z,14.40
2018-11-06T11:20:16.415Z,14.40
2018-11-06T11:22:44.630Z,14.40
2018-11-06T11:25:16.192Z,14.30
2018-11-06T11:27:45.179Z,14.40
2018-11-06T11:30:14.546Z,14.40
2018-11-06T11:33:01.198Z,14.40
2018-11-06T11:35:29.470Z,14.40
2018-11-06T11:37:57.672Z,14.40
2018-11-06T11:40:25.857Z,14.40
2018-11-06T11:42:56.463Z,14.40
2018-11-06T11:45:29.025Z,14.40
2018-11-06T11:47:57.236Z,14.40
2018-11-06T11:50:25.404Z,14.40
2018-11-06T11:52:58.116Z,14.60
2018-11-06T11:55:26.321Z,14.60
2018-11-06T11:57:57.599Z,14.70
2018-11-06T12:00:29.865Z,14.80
2018-11-06T12:02:58.234Z,14.90
2018-11-06T12:05:26.424Z,15.00
2018-11-06T12:07:56.333Z,15.10
2018-11-06T12:10:24.540Z,15.10
2018-11-06T12:12:53.070Z,15.30
2018-11-06T12:15:21.357Z,15.40
2018-11-06T12:17:49.595Z,15.50
2018-11-06T12:20:17.876Z,15.60
2018-11-06T12:22:48.047Z,15.70
2018-11-06T12:25:16.505Z,15.60
2018-11-06T12:27:44.596Z,15.70
2018-11-06T12:30:15.308Z,15.70
2018-11-06T12:32:43.597Z,15.80
2018-11-06T12:35:12.446Z,15.80
2018-11-06T12:37:41.008Z,15.80
2018-11-06T12:40:10.511Z,15.90
2018-11-06T12:42:39.297Z,15.80
2018-11-06T12:45:09.136Z,16.00
2018-11-06T12:47:37.414Z,16.00
2018-11-06T12:50:06.485Z,15.90
2018-11-06T12:52:34.714Z,16.00
2018-11-06T12:55:02.941Z,16.00
2018-11-06T12:57:31.981Z,16.00
2018-11-06T13:00:00.190Z,16.10
2018-11-06T13:02:28.368Z,16.00
2018-11-06T13:04:59.840Z,16.00
2018-11-06T13:07:28.519Z,16.00
2018-11-06T13:09:57.052Z,16.00
2018-11-06T13:12:25.204Z,16.00
2018-11-06T13:14:55.182Z,16.10
2018-11-06T13:17:24.043Z,16.20
2018-11-06T13:19:53.861Z,16.30
2018-11-06T13:22:25.991Z,16.20
2018-11-06T13:24:54.977Z,16.10
2018-11-06T13:27:23.157Z,16.10
2018-11-06T13:29:51.433Z,16.10
2018-11-06T13:32:19.696Z,16.20
2018-11-06T13:34:47.868Z,16.20
2018-11-06T13:37:17.725Z,16.20
2018-11-06T13:39:47.257Z,16.30
2018-11-06T13:42:15.540Z,16.30
2018-11-06T13:44:43.965Z,16.30
2018-11-06T13:47:11.956Z,16.30
2018-11-06T13:49:42.080Z,16.30
2018-11-06T13:52:10.296Z,16.30
2018-11-06T13:54:39.823Z,16.30
2018-11-06T13:57:08.576Z,16.30
2018-11-06T13:59:36.744Z,16.20
2018-11-06T14:02:05.289Z,16.20
2018-11-06T14:04:33.487Z,16.20
2018-11-06T14:07:01.683Z,16.20
2018-11-06T14:09:29.858Z,16.20
2018-11-06T14:11:58.070Z,16.20
2018-11-06T14:14:26.268Z,16.30
2018-11-06T14:16:55.958Z,16.30
2018-11-06T14:19:24.816Z,16.30
2018-11-06T14:21:56.321Z,16.30
2018-11-06T14:24:27.736Z,16.30
2018-11-06T14:26:57.164Z,16.40
2018-11-06T14:29:25.341Z,16.40
2018-11-06T14:31:53.593Z,16.30
2018-11-06T14:34:22.429Z,16.40
2018-11-06T14:36:51.030Z,16.40
2018-11-06T14:39:19.253Z,16.30
2018-11-06T14:41:47.429Z,16.20
2018-11-06T14:44:16.714Z,16.20
2018-11-06T14:46:44.952Z,16.10
2018-11-06T14:49:13.241Z,16.10
2018-11-06T14:51:41.341Z,16.00
2018-11-06T14:54:10.616Z,16.00
2018-11-06T14:56:39.760Z,16.00
2018-11-06T14:59:07.970Z,15.90
2018-11-06T15:01:36.160Z,15.80
2018-11-06T15:04:05.596Z,15.80
2018-11-06T15:06:33.819Z,15.70
2018-11-06T15:09:02.096Z,15.60
2018-11-06T15:11:30.321Z,15.60
2018-11-06T15:14:00.594Z,15.50
2018-11-06T15:16:28.829Z,15.40
2018-11-06T15:18:57.022Z,15.30
2018-11-06T15:21:25.229Z,15.20
2018-11-06T15:23:53.464Z,15.00
2018-11-06T15:26:21.644Z,14.90
2018-11-06T15:28:49.861Z,14.70
2018-11-06T15:31:18.693Z,14.60
2018-11-06T15:33:47.153Z,14.40
2018-11-06T15:36:15.381Z,14.20
2018-11-06T15:38:43.971Z,14.10
2018-11-06T15:41:18.319Z,13.90
2018-11-06T15:43:49.401Z,13.80
2018-11-06T15:46:17.689Z,13.60
2018-11-06T15:48:45.996Z,13.50
2018-11-06T15:51:16.165Z,13.40
2018-11-06T15:53:44.370Z,13.20
2018-11-06T15:56:12.589Z,13.10
2018-11-06T15:58:41.435Z,13.00
2018-11-06T16:01:14.312Z,12.90
2018-11-06T16:03:43.372Z,12.70
2018-11-06T16:06:17.752Z,12.60
2018-11-06T16:08:49.790Z,12.50
2018-11-06T16:11:20.268Z,12.40
2018-11-06T16:13:49.731Z,12.30
2018-11-06T16:16:20.143Z,12.20
2018-11-06T16:18:48.377Z,12.20
2018-11-06T16:21:16.594Z,12.10
2018-11-06T16:23:45.010Z,12.00
2018-11-06T16:26:13.205Z,11.90
2018-11-06T16:28:43.164Z,11.90
2018-11-06T16:31:15.679Z,11.80
2018-11-06T16:33:46.825Z,11.80
2018-11-06T16:36:18.237Z,11.80
2018-11-06T16:38:46.425Z,11.70
2018-11-06T16:41:16.131Z,11.60
2018-11-06T16:43:50.168Z,11.60
2018-11-06T16:46:21.455Z,11.60
2018-11-06T16:48:49.905Z,11.50
2018-11-06T16:51:18.204Z,11.50
2018-11-06T16:53:46.393Z,11.50
2018-11-06T16:56:14.666Z,11.50
2018-11-06T16:58:42.865Z,11.50
2018-11-06T17:01:15.897Z,11.40
2018-11-06T17:03:43.918Z,11.40
2018-11-06T17:06:20.086Z,11.50
2018-11-06T17:08:48.402Z,11.50
2018-11-06T17:11:16.638Z,11.40
2018-11-06T17:13:46.896Z,11.40
2018-11-06T17:16:18.661Z,11.40
2018-11-06T17:18:47.037Z,11.50
2018-11-06T17:21:15.293Z,11.50
2018-11-06T17:23:43.496Z,11.70
2018-11-06T17:26:13.680Z,11.70
2018-11-06T17:28:48.030Z,11.90
2018-11-06T17:31:16.277Z,11.90
2018-11-06T17:33:44.453Z,12.00
2018-11-06T17:36:12.712Z,11.90
2018-11-06T17:38:46.721Z,11.50
2018-11-06T17:41:15.085Z,11.70
2018-11-06T17:43:43.621Z,11.90
2018-11-06T17:46:17.758Z,12.00
2018-11-06T17:48:45.993Z,12.00
2018-11-06T17:51:16.302Z,12.20
2018-11-06T17:53:46.414Z,12.30
2018-11-06T17:56:15.465Z,12.30
2018-11-06T17:58:43.726Z,12.40
2018-11-06T18:01:16.293Z,12.40
2018-11-06T18:03:44.537Z,12.30
2018-11-06T18:06:12.732Z,12.30
2018-11-06T18:08:41.095Z,12.20
2018-11-06T18:11:10.229Z,12.00
2018-11-06T18:13:38.458Z,11.90
2018-11-06T18:16:06.809Z,11.70
2018-11-06T18:18:39.217Z,11.70
2018-11-06T18:21:07.460Z,11.60
2018-11-06T18:23:35.791Z,11.50
2018-11-06T18:26:04.018Z,11.60
2018-11-06T18:28:34.925Z,11.70
2018-11-06T18:31:03.181Z,11.70
2018-11-06T18:33:34.181Z,11.60
2018-11-06T18:36:05.185Z,11.50
2018-11-06T18:38:33.417Z,11.50
2018-11-06T18:41:01.649Z,11.30
2018-11-06T18:43:29.892Z,11.20
2018-11-06T18:46:02.741Z,11.10
2018-11-06T18:48:31.062Z,11.00
2018-11-06T18:50:59.290Z,10.90
2018-11-06T18:53:27.507Z,10.80
2018-11-06T18:55:56.000Z,10.80
2018-11-06T18:58:24.994Z,10.70
2018-11-06T19:03:31.745Z,10.50
2018-11-06T19:08:36.422Z,10.40
2018-11-06T19:11:04.718Z,10.30
2018-11-06T19:13:34.933Z,10.30
2018-11-06T19:16:03.306Z,10.20
2018-11-06T19:18:31.717Z,10.10
2018-11-06T19:21:00.407Z,10.10
2018-11-06T19:23:29.827Z,10.00
2018-11-06T19:25:58.248Z,10.10
2018-11-06T19:28:26.639Z,10.10
2018-11-06T19:30:54.936Z,10.00
2018-11-06T19:33:23.321Z,10.00
2018-11-06T19:35:51.649Z,9.90
2018-11-06T19:38:19.950Z,9.90
2018-11-06T19:40:48.330Z,9.80
2018-11-06T19:43:16.715Z,9.70
2018-11-06T19:45:46.028Z,9.70
2018-11-06T19:48:14.340Z,9.70
2018-11-06T19:50:42.676Z,9.60
2018-11-06T19:53:10.959Z,9.60
2018-11-06T19:55:40.215Z,9.50
2018-11-06T19:58:08.531Z,9.40
2018-11-06T20:00:37.957Z,9.50
2018-11-06T20:03:06.329Z,9.40
2018-11-06T20:05:34.740Z,9.40
2018-11-06T20:08:03.055Z,9.40
2018-11-06T20:10:31.354Z,9.40
2018-11-06T20:12:59.758Z,9.30
2018-11-06T20:15:28.201Z,9.30
2018-11-06T20:17:56.611Z,9.30
2018-11-06T20:20:26.127Z,9.20
2018-11-06T20:22:54.694Z,9.20
2018-11-06T20:25:23.175Z,9.10
2018-11-06T20:27:51.555Z,9.30
2018-11-06T20:30:24.149Z,9.30
2018-11-06T20:32:52.538Z,9.30
2018-11-06T20:35:21.973Z,9.40
2018-11-06T20:37:50.376Z,9.50
2018-11-06T20:40:21.139Z,9.50
2018-11-06T20:42:49.974Z,9.50
2018-11-06T20:45:19.025Z,9.60
2018-11-06T20:47:47.422Z,9.60
2018-11-06T20:50:19.852Z,9.60
2018-11-06T20:52:48.323Z,9.60
2018-11-06T20:55:17.252Z,9.50
2018-11-06T20:57:45.499Z,9.50
2018-11-06T21:00:19.855Z,9.50
2018-11-06T21:02:48.823Z,9.40
2018-11-06T21:05:17.345Z,9.40
2018-11-06T21:07:46.329Z,9.40
2018-11-06T21:10:15.759Z,9.40
2018-11-06T21:12:44.113Z,9.40
2018-11-06T21:15:12.991Z,9.30
2018-11-06T21:17:41.365Z,9.20
2018-11-06T21:20:10.554Z,9.20
2018-11-06T21:22:39.214Z,9.20
2018-11-06T21:25:08.182Z,9.20
2018-11-06T21:27:37.017Z,9.20
2018-11-06T21:30:07.916Z,9.20
2018-11-06T21:32:36.287Z,9.20
2018-11-06T21:35:08.479Z,9.20
2018-11-06T21:37:38.142Z,9.20
2018-11-06T21:40:14.694Z,9.10
2018-11-06T21:42:45.308Z,9.10
2018-11-06T21:45:15.083Z,9.10
2018-11-06T21:47:46.229Z,9.00
2018-11-06T21:50:15.373Z,9.00
2018-11-06T21:52:43.625Z,9.00
2018-11-06T21:55:13.162Z,8.90
2018-11-06T21:57:41.435Z,8.90
2018-11-06T22:00:12.378Z,8.90
2018-11-06T22:02:40.577Z,8.90
2018-11-06T22:05:10.376Z,8.80
2018-11-06T22:07:38.780Z,8.90
2018-11-06T22:10:08.687Z,8.80
2018-11-06T22:12:37.024Z,8.80
2018-11-06T22:15:06.042Z,8.80
2018-11-06T22:17:34.310Z,8.70
2018-11-06T22:20:02.548Z,8.70
2018-11-06T22:22:30.820Z,8.70
2018-11-06T22:24:59.114Z,8.70
2018-11-06T22:27:27.414Z,8.70
2018-11-06T22:29:55.602Z,8.60
2018-11-06T22:32:23.886Z,8.60
2018-11-06T22:34:52.153Z,8.70
2018-11-06T22:37:20.481Z,8.70
2018-11-06T22:39:48.670Z,8.80
2018-11-06T22:42:16.979Z,8.80
2018-11-06T22:44:45.238Z,8.80
2018-11-06T22:47:13.502Z,8.80
2018-11-06T22:49:41.767Z,8.70
2018-11-06T22:52:10.015Z,8.70
2018-11-06T22:54:38.282Z,8.60
2018-11-06T22:57:06.522Z,8.60
2018-11-06T22:59:34.822Z,8.70
2018-11-06T23:02:03.081Z,8.70
2018-11-06T23:04:31.349Z,8.70
2018-11-06T23:06:59.637Z,8.70
2018-11-06T23:09:27.826Z,8.70
2018-11-06T23:11:56.095Z,8.70
2018-11-06T23:14:24.333Z,8.70
2018-11-06T23:16:52.610Z,8.70
2018-11-06T23:19:20.841Z,8.70
2018-11-06T23:21:49.093Z,8.70
2018-11-06T23:24:17.317Z,8.70
2018-11-06T23:26:45.576Z,8.60
2018-11-06T23:29:13.821Z,8.60
2018-11-06T23:31:42.093Z,8.60
2018-11-06T23:34:10.366Z,8.60
2018-11-06T23:36:38.615Z,8.60
2018-11-06T23:39:07.609Z,8.50
2018-11-06T23:41:35.905Z,8.50
2018-11-06T23:44:04.283Z,8.50
2018-11-06T23:46:32.523Z,8.50
2018-11-06T23:49:00.846Z,8.50
2018-11-06T23:51:29.098Z,8.50
2018-11-06T23:53:57.367Z,8.40
2018-11-06T23:56:25.660Z,8.40
2018-11-06T23:58:53.854Z,8.30
